Time;durP1;ratioP1;P1;durP2;ratioP2;P2;SDS_P1;SDS_P2;PMS_P1;PMS_P2;Temp;Humidity;BMP_temperature;BMP_pressure;BME280_temperature;BME280_humidity;BME280_pressure;Samples;Min_cycle;Max_cycle;Signal;HPM_P1;HPM_P2
2023/01/22 00:01:18;;;;;;;11.45;5.47;;;;;;;;;;7395196;19;20002;-71
2023/01/22 00:03:44;;;;;;;10.98;5.47;;;;;;;;;;7394323;19;20390;-71
2023/01/22 00:06:10;;;;;;;14.77;5.97;;;;;;;;;;7394903;19;20014;-70
2023/01/22 00:08:36;;;;;;;16.27;6.75;;;;;;;;;;7392605;19;20005;-71
2023/01/22 00:11:03;;;;;;;12.52;5.88;;;;;;;;;;7393837;19;20030;-71
2023/01/22 00:13:28;;;;;;;13.82;6.22;;;;;;;;;;7392593;19;20100;-70
2023/01/22 00:15:57;;;;;;;14.30;6.18;;;;;;;;;;7394790;19;20931;-71
2023/01/22 00:18:22;;;;;;;11.18;5.60;;;;;;;;;;7394547;19;20064;-70
2023/01/22 00:20:49;;;;;;;13.55;6.20;;;;;;;;;;7394305;19;20016;-71
2023/01/22 00:23:15;;;;;;;13.55;5.97;;;;;;;;;;7394402;19;20002;-70
2023/01/22 00:25:41;;;;;;;14.55;6.10;;;;;;;;;;7394301;19;20102;-72
2023/01/22 00:28:06;;;;;;;11.48;5.30;;;;;;;;;;7393204;19;20003;-72
2023/01/22 00:30:32;;;;;;;14.77;5.85;;;;;;;;;;7395012;19;19994;-71
2023/01/22 00:32:57;;;;;;;14.20;6.32;;;;;;;;;;7393662;19;20051;-71
2023/01/22 00:35:23;;;;;;;14.00;6.05;;;;;;;;;;7393699;19;20552;-71
2023/01/22 00:37:48;;;;;;;12.93;5.97;;;;;;;;;;7393289;19;20018;-71
2023/01/22 00:40:14;;;;;;;10.88;4.55;;;;;;;;;;7395979;19;20024;-72
2023/01/22 00:42:40;;;;;;;11.88;5.68;;;;;;;;;;7394190;19;20058;-70
2023/01/22 00:45:06;;;;;;;12.65;5.57;;;;;;;;;;7394636;19;20364;-70
2023/01/22 00:47:31;;;;;;;11.40;4.30;;;;;;;;;;7399505;19;20058;-71
2023/01/22 00:49:56;;;;;;;10.57;5.25;;;;;;;;;;7395568;19;20002;-72
2023/01/22 00:52:22;;;;;;;10.73;5.55;;;;;;;;;;7392618;19;20006;-70
2023/01/22 00:54:47;;;;;;;11.73;6.07;;;;;;;;;;7398217;19;20574;-70
2023/01/22 00:57:12;;;;;;;7.97;3.90;;;;;;;;;;7395994;19;20473;-70
2023/01/22 00:59:38;;;;;;;11.45;5.55;;;;;;;;;;7393214;19;20002;-71
2023/01/22 01:02:05;;;;;;;7.55;4.30;;;;;;;;;;7391538;19;20006;-71
2023/01/22 01:04:30;;;;;;;11.68;5.53;;;;;;;;;;7392034;19;20030;-71
2023/01/22 01:06:56;;;;;;;9.82;5.07;;;;;;;;;;7394593;19;20379;-71
2023/01/22 01:09:21;;;;;;;11.35;4.95;;;;;;;;;;7388483;19;19994;-71
2023/01/22 01:11:46;;;;;;;11.02;5.53;;;;;;;;;;7389723;19;19999;-71
2023/01/22 01:14:12;;;;;;;12.82;5.65;;;;;;;;;;7392137;19;20006;-71
2023/01/22 01:16:37;;;;;;;12.48;5.28;;;;;;;;;;7392629;19;19999;-70
2023/01/22 01:19:05;;;;;;;9.70;5.13;;;;;;;;;;7392508;19;20007;-71
2023/01/22 01:21:31;;;;;;;10.57;5.43;;;;;;;;;;7390991;19;20031;-71
2023/01/22 01:23:57;;;;;;;10.40;4.93;;;;;;;;;;7391279;19;20493;-71
2023/01/22 01:26:23;;;;;;;11.00;5.50;;;;;;;;;;7392108;19;20007;-71
2023/01/22 01:28:51;;;;;;;16.73;5.88;;;;;;;;;;7388857;19;20019;-71
2023/01/22 01:31:17;;;;;;;10.20;4.55;;;;;;;;;;7391088;19;20081;-71
2023/01/22 01:33:43;;;;;;;11.07;5.18;;;;;;;;;;7391064;19;20010;-71
2023/01/22 01:36:17;;;;;;;9.32;4.63;;;;;;;;;;7391318;19;20476;-71
2023/01/22 01:38:43;;;;;;;10.65;5.40;;;;;;;;;;7391598;19;20010;-71
2023/01/22 01:41:12;;;;;;;10.88;5.00;;;;;;;;;;7390810;19;20039;-71
2023/01/22 01:43:37;;;;;;;10.88;5.22;;;;;;;;;;7391097;19;20006;-71
2023/01/22 01:46:10;;;;;;;10.68;4.95;;;;;;;;;;7392000;19;20494;-71
2023/01/22 01:48:42;;;;;;;8.60;4.40;;;;;;;;;;7390239;19;20007;-71
2023/01/22 01:51:18;;;;;;;10.05;5.40;;;;;;;;;;7391546;19;20104;-73
2023/01/22 01:53:46;;;;;;;10.95;4.90;;;;;;;;;;7395476;19;20029;-71
2023/01/22 01:56:16;;;;;;;8.45;4.05;;;;;;;;;;7395752;19;20080;-71
2023/01/22 01:58:43;;;;;;;10.85;5.28;;;;;;;;;;7394212;19;20424;-71
2023/01/22 02:01:15;;;;;;;11.63;4.93;;;;;;;;;;7393193;19;20062;-71
2023/01/22 02:03:41;;;;;;;9.52;5.07;;;;;;;;;;7390938;19;20031;-71
2023/01/22 02:06:11;;;;;;;10.15;4.35;;;;;;;;;;7396233;19;20111;-70
2023/01/22 02:08:37;;;;;;;12.00;5.28;;;;;;;;;;7388462;19;20007;-71
2023/01/22 02:11:03;;;;;;;9.18;4.60;;;;;;;;;;7389219;19;20109;-71
2023/01/22 02:13:31;;;;;;;8.07;4.15;;;;;;;;;;7390417;19;20472;-71
2023/01/22 02:15:56;;;;;;;10.98;4.70;;;;;;;;;;7392710;19;20054;-72
2023/01/22 02:18:22;;;;;;;10.88;5.03;;;;;;;;;;7397240;19;19994;-72
2023/01/22 02:20:58;;;;;;;9.80;4.63;;;;;;;;;;7392947;19;20006;-71
2023/01/22 02:23:25;;;;;;;9.70;4.30;;;;;;;;;;7391043;19;20010;-71
2023/01/22 02:25:51;;;;;;;8.48;4.72;;;;;;;;;;7391272;19;20002;-69
2023/01/22 02:28:16;;;;;;;8.82;4.30;;;;;;;;;;7390037;19;20472;-71
2023/01/22 02:30:42;;;;;;;10.30;5.35;;;;;;;;;;7390403;19;20006;-71
2023/01/22 02:33:08;;;;;;;7.55;4.07;;;;;;;;;;7389757;19;20272;-71
2023/01/22 02:35:33;;;;;;;10.82;4.40;;;;;;;;;;7390536;19;20006;-70
2023/01/22 02:37:59;;;;;;;10.27;4.93;;;;;;;;;;7389305;19;20017;-70
2023/01/22 02:40:24;;;;;;;9.55;4.80;;;;;;;;;;7388420;19;20002;-70
2023/01/22 02:42:49;;;;;;;9.27;4.38;;;;;;;;;;7387653;19;20475;-70
2023/01/22 02:45:15;;;;;;;13.60;5.05;;;;;;;;;;7396858;19;20460;-70
2023/01/22 02:47:40;;;;;;;11.35;4.75;;;;;;;;;;7394945;19;20007;-70
2023/01/22 02:50:06;;;;;;;10.88;5.20;;;;;;;;;;7389482;19;19998;-70
2023/01/22 02:52:31;;;;;;;11.15;5.18;;;;;;;;;;7386827;19;20002;-70
2023/01/22 02:54:57;;;;;;;10.07;4.72;;;;;;;;;;7388531;19;20030;-70
2023/01/22 02:57:22;;;;;;;10.13;4.72;;;;;;;;;;7391053;19;19999;-70
2023/01/22 02:59:48;;;;;;;10.98;4.45;;;;;;;;;;7388679;19;20006;-71
2023/01/22 03:02:13;;;;;;;9.88;4.88;;;;;;;;;;7387069;19;20006;-71
2023/01/22 03:04:38;;;;;;;11.77;5.47;;;;;;;;;;7388143;19;20014;-71
2023/01/22 03:07:04;;;;;;;14.52;5.03;;;;;;;;;;7388070;19;20743;-70
2023/01/22 03:09:29;;;;;;;8.68;4.28;;;;;;;;;;7387017;19;20552;-70
2023/01/22 03:11:55;;;;;;;9.48;4.82;;;;;;;;;;7386832;19;20022;-70
2023/01/22 03:22:34;;;;;;;10.13;4.20;;;;;;;;;;7385789;19;20534;-70
2023/01/22 03:25:00;;;;;;;10.18;4.43;;;;;;;;;;7387807;19;20007;-69
2023/01/22 03:27:26;;;;;;;11.15;5.13;;;;;;;;;;7387422;19;19998;-70
2023/01/22 03:29:52;;;;;;;9.48;4.57;;;;;;;;;;7387685;19;20025;-72
2023/01/22 03:32:18;;;;;;;6.70;3.80;;;;;;;;;;7386328;19;20006;-69
2023/01/22 03:34:44;;;;;;;9.88;4.30;;;;;;;;;;7392681;19;20011;-70
2023/01/22 03:37:11;;;;;;;8.77;4.32;;;;;;;;;;7395043;19;19998;-70
2023/01/22 03:39:37;;;;;;;8.55;4.38;;;;;;;;;;7395240;19;20006;-70
2023/01/22 03:42:02;;;;;;;9.73;4.45;;;;;;;;;;7392087;19;20010;-66
2023/01/22 03:44:28;;;;;;;9.35;4.22;;;;;;;;;;7392888;19;20401;-66
2023/01/22 03:46:53;;;;;;;9.77;4.47;;;;;;;;;;7393304;19;19994;-66
2023/01/22 03:49:18;;;;;;;8.10;3.92;;;;;;;;;;7392080;19;20003;-65
2023/01/22 03:51:44;;;;;;;7.82;3.67;;;;;;;;;;7393608;19;19994;-67
2023/01/22 03:54:14;;;;;;;9.45;3.92;;;;;;;;;;7393690;19;20535;-67
2023/01/22 03:56:40;;;;;;;8.18;4.00;;;;;;;;;;7393771;19;19999;-67
2023/01/22 03:59:06;;;;;;;11.23;4.68;;;;;;;;;;7394124;19;20003;-67
2023/01/22 04:01:31;;;;;;;11.05;4.40;;;;;;;;;;7391158;19;19999;-65
2023/01/22 04:03:57;;;;;;;11.02;4.25;;;;;;;;;;7393017;19;20447;-68
2023/01/22 04:06:23;;;;;;;10.55;4.65;;;;;;;;;;7393529;19;19994;-66
2023/01/22 04:08:50;;;;;;;7.18;3.28;;;;;;;;;;7392029;19;20001;-66
2023/01/22 04:11:16;;;;;;;9.68;4.53;;;;;;;;;;7391376;19;20042;-66
2023/01/22 04:13:43;;;;;;;7.10;3.88;;;;;;;;;;7395309;19;20213;-66
2023/01/22 04:16:09;;;;;;;6.32;3.47;;;;;;;;;;7393379;19;20030;-67
2023/01/22 04:18:34;;;;;;;8.27;3.53;;;;;;;;;;7394461;19;20026;-67
2023/01/22 04:21:00;;;;;;;10.27;4.00;;;;;;;;;;7393630;19;20496;-67
2023/01/22 04:23:25;;;;;;;9.15;3.97;;;;;;;;;;7393438;19;19995;-67
2023/01/22 04:25:51;;;;;;;8.27;3.88;;;;;;;;;;7398162;19;20480;-66
2023/01/22 04:28:17;;;;;;;8.85;4.32;;;;;;;;;;7392812;19;20333;-66
2023/01/22 04:30:44;;;;;;;7.18;3.33;;;;;;;;;;7393178;19;19995;-67
2023/01/22 04:33:10;;;;;;;8.18;4.10;;;;;;;;;;7390160;19;20001;-66
2023/01/22 04:35:36;;;;;;;5.88;3.30;;;;;;;;;;7393190;19;20058;-67
2023/01/22 04:38:04;;;;;;;8.45;3.97;;;;;;;;;;7392914;19;20005;-67
2023/01/22 04:40:29;;;;;;;7.65;3.92;;;;;;;;;;7392760;19;20015;-66
2023/01/22 04:42:55;;;;;;;8.18;4.35;;;;;;;;;;7390306;19;20019;-69
2023/01/22 04:45:20;;;;;;;10.05;4.03;;;;;;;;;;7391800;19;20392;-67
2023/01/22 04:47:47;;;;;;;9.30;3.80;;;;;;;;;;7390004;19;20001;-66
2023/01/22 04:50:21;;;;;;;10.38;4.07;;;;;;;;;;7392375;19;20036;-66
2023/01/22 04:52:49;;;;;;;7.10;3.50;;;;;;;;;;7390326;19;20006;-66
2023/01/22 04:55:15;;;;;;;6.30;3.20;;;;;;;;;;7396352;19;20405;-67
2023/01/22 04:57:40;;;;;;;7.47;3.42;;;;;;;;;;7391909;19;19995;-67
2023/01/22 05:00:07;;;;;;;6.78;3.58;;;;;;;;;;7390327;19;20014;-66
2023/01/22 05:02:32;;;;;;;10.05;3.30;;;;;;;;;;7389864;19;20007;-66
2023/01/22 05:04:57;;;;;;;7.10;3.42;;;;;;;;;;7391665;19;20009;-69
2023/01/22 05:07:23;;;;;;;8.38;3.92;;;;;;;;;;7391598;19;20001;-66
2023/01/22 05:09:48;;;;;;;7.80;3.58;;;;;;;;;;7392143;19;20319;-67
2023/01/22 05:12:13;;;;;;;6.90;3.47;;;;;;;;;;7390292;19;20002;-67
2023/01/22 05:14:39;;;;;;;5.30;2.72;;;;;;;;;;7391224;19;20005;-66
2023/01/22 05:17:04;;;;;;;6.05;2.78;;;;;;;;;;7391600;19;20002;-66
2023/01/22 05:19:30;;;;;;;5.68;2.90;;;;;;;;;;7391324;19;20002;-66
2023/01/22 05:21:55;;;;;;;6.93;3.50;;;;;;;;;;7390777;19;19991;-66
2023/01/22 05:24:20;;;;;;;7.80;3.15;;;;;;;;;;7396050;19;20015;-66
2023/01/22 05:26:46;;;;;;;5.40;2.97;;;;;;;;;;7391254;19;20499;-66
2023/01/22 05:29:11;;;;;;;6.43;3.05;;;;;;;;;;7387625;19;19998;-66
2023/01/22 05:31:36;;;;;;;5.95;2.85;;;;;;;;;;7388145;19;19999;-66
2023/01/22 05:34:02;;;;;;;5.43;2.88;;;;;;;;;;7390761;19;20018;-66
2023/01/22 05:36:28;;;;;;;5.38;3.13;;;;;;;;;;7393250;19;19999;-66
2023/01/22 05:38:54;;;;;;;4.97;2.60;;;;;;;;;;7390734;19;20007;-66
2023/01/22 05:41:19;;;;;;;6.88;3.50;;;;;;;;;;7390322;19;20009;-66
2023/01/22 05:43:45;;;;;;;6.78;3.55;;;;;;;;;;7390676;19;20501;-68
2023/01/22 05:46:10;;;;;;;8.10;2.65;;;;;;;;;;7389219;19;20019;-67
2023/01/22 05:48:35;;;;;;;6.40;3.60;;;;;;;;;;7389311;19;20002;-67
2023/01/22 05:51:05;;;;;;;5.93;3.20;;;;;;;;;;7390372;19;20006;-68
2023/01/22 05:53:32;;;;;;;6.28;3.30;;;;;;;;;;7388293;19;19999;-67
2023/01/22 05:56:01;;;;;;;5.70;3.50;;;;;;;;;;7388891;19;20003;-66
2023/01/22 05:58:30;;;;;;;5.53;2.80;;;;;;;;;;7390348;19;20337;-67
2023/01/22 06:00:56;;;;;;;5.80;3.28;;;;;;;;;;7391088;19;20006;-67
2023/01/22 06:03:22;;;;;;;5.78;2.80;;;;;;;;;;7389939;19;19998;-67
2023/01/22 06:05:56;;;;;;;6.07;3.47;;;;;;;;;;7390714;19;19994;-65
2023/01/22 06:08:22;;;;;;;6.38;3.40;;;;;;;;;;7389517;19;19994;-67
2023/01/22 06:10:47;;;;;;;6.30;3.40;;;;;;;;;;7389229;19;20013;-66
2023/01/22 06:13:12;;;;;;;7.75;3.35;;;;;;;;;;7387576;19;19994;-67
2023/01/22 06:15:38;;;;;;;6.85;3.35;;;;;;;;;;7390474;19;20003;-67
2023/01/22 06:18:03;;;;;;;6.13;3.10;;;;;;;;;;7390069;19;20015;-67
2023/01/22 06:20:29;;;;;;;5.80;3.40;;;;;;;;;;7390153;19;20058;-67
2023/01/22 06:22:54;;;;;;;7.55;3.58;;;;;;;;;;7390662;19;19990;-66
2023/01/22 06:25:19;;;;;;;6.20;3.40;;;;;;;;;;7389995;19;19994;-66
2023/01/22 06:27:45;;;;;;;6.30;3.50;;;;;;;;;;7389031;19;19999;-66
2023/01/22 06:30:10;;;;;;;5.00;2.75;;;;;;;;;;7389542;19;19994;-66
2023/01/22 06:32:35;;;;;;;6.13;3.22;;;;;;;;;;7387398;19;20031;-66
2023/01/22 06:35:01;;;;;;;7.25;3.17;;;;;;;;;;7389213;19;20006;-67
2023/01/22 06:37:29;;;;;;;9.68;3.30;;;;;;;;;;7389507;19;20423;-66
2023/01/22 06:39:55;;;;;;;6.32;3.05;;;;;;;;;;7387479;19;19998;-66
2023/01/22 06:42:20;;;;;;;6.10;3.22;;;;;;;;;;7386130;19;19997;-67
2023/01/22 06:44:46;;;;;;;5.53;2.67;;;;;;;;;;7388664;19;20030;-68
2023/01/22 06:47:12;;;;;;;5.90;2.90;;;;;;;;;;7388942;19;20343;-67
2023/01/22 06:49:37;;;;;;;6.28;3.20;;;;;;;;;;7388651;19;19995;-67
2023/01/22 06:52:06;;;;;;;5.90;2.88;;;;;;;;;;7391891;19;20470;-67
2023/01/22 06:54:31;;;;;;;5.55;2.80;;;;;;;;;;7388290;19;20024;-66
2023/01/22 06:56:56;;;;;;;6.85;3.60;;;;;;;;;;7388247;19;20471;-68
2023/01/22 06:59:22;;;;;;;6.03;2.90;;;;;;;;;;7388293;19;20593;-66
2023/01/22 07:01:47;;;;;;;7.43;3.60;;;;;;;;;;7387361;19;20068;-68
2023/01/22 07:04:12;;;;;;;4.90;2.78;;;;;;;;;;7387615;19;19998;-66
2023/01/22 07:06:38;;;;;;;6.10;3.13;;;;;;;;;;7387929;19;20481;-68
2023/01/22 07:09:03;;;;;;;8.05;3.47;;;;;;;;;;7384577;19;20058;-67
2023/01/22 07:11:28;;;;;;;5.97;2.85;;;;;;;;;;7387258;19;20468;-67
2023/01/22 07:13:53;;;;;;;5.90;3.10;;;;;;;;;;7387201;19;20001;-67
2023/01/22 07:16:19;;;;;;;4.90;2.58;;;;;;;;;;7387935;19;20004;-66
2023/01/22 07:18:44;;;;;;;5.40;3.10;;;;;;;;;;7389650;19;20460;-67
2023/01/22 07:21:10;;;;;;;4.88;2.70;;;;;;;;;;7390004;19;20006;-67
2023/01/22 07:23:36;;;;;;;6.00;3.15;;;;;;;;;;7385734;19;20006;-66
2023/01/22 07:26:01;;;;;;;5.30;3.08;;;;;;;;;;7385192;19;19994;-67
2023/01/22 07:28:26;;;;;;;5.22;3.25;;;;;;;;;;7383889;19;20015;-67
2023/01/22 07:30:52;;;;;;;5.03;2.88;;;;;;;;;;7389621;19;20069;-68
2023/01/22 07:33:17;;;;;;;5.88;3.22;;;;;;;;;;7390813;19;19998;-66
2023/01/22 07:35:42;;;;;;;5.68;3.05;;;;;;;;;;7384849;19;20158;-66
2023/01/22 07:38:08;;;;;;;5.38;2.85;;;;;;;;;;7386932;19;20065;-66
2023/01/22 07:40:34;;;;;;;6.22;3.40;;;;;;;;;;7390802;19;19998;-69
2023/01/22 07:43:03;;;;;;;6.55;3.30;;;;;;;;;;7384862;19;20005;-67
2023/01/22 07:45:28;;;;;;;5.75;3.10;;;;;;;;;;7387025;19;20480;-68
2023/01/22 07:47:58;;;;;;;6.00;3.03;;;;;;;;;;7386549;19;19999;-66
2023/01/22 07:50:26;;;;;;;6.45;3.00;;;;;;;;;;7389184;19;20001;-67
2023/01/22 07:52:52;;;;;;;7.22;3.75;;;;;;;;;;7388238;19;19998;-67
2023/01/22 07:55:18;;;;;;;6.38;3.38;;;;;;;;;;7390365;19;20002;-67
2023/01/22 07:57:44;;;;;;;5.78;2.75;;;;;;;;;;7391443;19;20088;-67
2023/01/22 08:00:10;;;;;;;4.93;2.63;;;;;;;;;;7391588;19;19995;-67
2023/01/22 08:02:38;;;;;;;5.60;3.00;;;;;;;;;;7384673;19;20031;-66
2023/01/22 08:05:05;;;;;;;5.07;3.00;;;;;;;;;;7385528;19;20002;-67
2023/01/22 08:07:31;;;;;;;6.72;3.60;;;;;;;;;;7380258;19;20011;-66
2023/01/22 08:09:56;;;;;;;5.60;3.20;;;;;;;;;;7387517;19;20409;-67
2023/01/22 08:12:22;;;;;;;7.60;3.25;;;;;;;;;;7385503;19;20061;-68
2023/01/22 08:14:47;;;;;;;7.78;3.20;;;;;;;;;;7381764;19;19999;-67
2023/01/22 08:17:12;;;;;;;7.82;3.33;;;;;;;;;;7382529;19;20003;-68
2023/01/22 08:19:38;;;;;;;7.72;3.42;;;;;;;;;;7385040;19;20002;-67
2023/01/22 08:22:03;;;;;;;6.05;3.58;;;;;;;;;;7388608;19;20002;-68
2023/01/22 08:24:29;;;;;;;4.90;2.75;;;;;;;;;;7394209;19;20019;-69
2023/01/22 08:26:55;;;;;;;8.40;3.47;;;;;;;;;;7391175;19;20001;-66
2023/01/22 08:29:20;;;;;;;7.43;4.05;;;;;;;;;;7386711;19;20033;-68
2023/01/22 08:31:45;;;;;;;6.88;3.70;;;;;;;;;;7393041;19;20025;-67
2023/01/22 08:34:11;;;;;;;8.48;4.20;;;;;;;;;;7393284;19;20002;-69
2023/01/22 08:36:36;;;;;;;5.53;2.92;;;;;;;;;;7389137;19;20009;-68
2023/01/22 08:39:01;;;;;;;6.28;3.22;;;;;;;;;;7395911;19;19998;-68
2023/01/22 08:41:27;;;;;;;6.82;3.30;;;;;;;;;;7395560;19;19990;-74
2023/01/22 08:43:52;;;;;;;2.90;1.92;;;;;;;;;;7394460;19;19998;-74
2023/01/22 08:46:18;;;;;;;6.07;3.45;;;;;;;;;;7393009;19;20012;-71
2023/01/22 08:48:43;;;;;;;6.28;3.33;;;;;;;;;;7391736;19;20003;-71
2023/01/22 08:51:10;;;;;;;6.78;3.25;;;;;;;;;;7392184;19;19998;-70
2023/01/22 08:53:35;;;;;;;6.03;3.28;;;;;;;;;;7394574;19;20010;-70
2023/01/22 08:56:00;;;;;;;7.00;3.40;;;;;;;;;;7391939;19;20010;-71
2023/01/22 08:58:26;;;;;;;7.70;3.55;;;;;;;;;;7389945;19;20475;-71
2023/01/22 09:00:53;;;;;;;6.30;2.97;;;;;;;;;;7389704;19;20320;-70
2023/01/22 09:03:19;;;;;;;6.13;3.63;;;;;;;;;;7391325;19;20374;-71
2023/01/22 09:05:44;;;;;;;6.07;3.50;;;;;;;;;;7395418;19;19994;-72
2023/01/22 09:08:10;;;;;;;6.70;3.60;;;;;;;;;;7393969;19;20002;-72
2023/01/22 09:10:35;;;;;;;7.22;3.50;;;;;;;;;;7391529;19;20339;-72
2023/01/22 09:13:01;;;;;;;6.90;3.15;;;;;;;;;;7389406;19;19998;-71
2023/01/22 09:15:26;;;;;;;6.72;3.60;;;;;;;;;;7395281;19;20083;-73
2023/01/22 09:17:51;;;;;;;7.60;3.40;;;;;;;;;;7392044;19;20033;-74
2023/01/22 09:20:17;;;;;;;6.25;3.60;;;;;;;;;;7379915;19;20100;-75
2023/01/22 09:22:46;;;;;;;5.53;3.38;;;;;;;;;;7386843;19;20357;-74
2023/01/22 09:25:12;;;;;;;6.45;3.47;;;;;;;;;;7384769;19;20018;-76
2023/01/22 09:27:37;;;;;;;5.47;2.97;;;;;;;;;;7389083;19;20078;-74
2023/01/22 09:30:03;;;;;;;6.75;3.20;;;;;;;;;;7385414;19;20003;-74
2023/01/22 09:32:29;;;;;;;7.13;3.20;;;;;;;;;;7384879;19;20273;-73
2023/01/22 09:34:54;;;;;;;5.55;3.15;;;;;;;;;;7386410;19;20002;-73
2023/01/22 09:37:20;;;;;;;6.80;2.67;;;;;;;;;;7385468;19;20017;-72
2023/01/22 09:39:49;;;;;;;6.05;2.90;;;;;;;;;;7386751;19;20042;-73
2023/01/22 09:42:26;;;;;;;5.97;3.10;;;;;;;;;;7384799;19;20027;-76
2023/01/22 09:44:56;;;;;;;6.65;3.88;;;;;;;;;;7389737;19;20003;-75
2023/01/22 09:47:33;;;;;;;6.15;3.40;;;;;;;;;;7387040;19;20002;-76
2023/01/22 09:50:10;;;;;;;8.68;4.25;;;;;;;;;;7391485;19;20006;-77
2023/01/22 09:52:38;;;;;;;5.93;3.00;;;;;;;;;;7388064;19;20460;-75
2023/01/22 09:55:10;;;;;;;5.20;2.88;;;;;;;;;;7389855;19;20063;-75
2023/01/22 09:57:41;;;;;;;5.93;3.40;;;;;;;;;;7388880;19;20465;-75
2023/01/22 10:00:17;;;;;;;6.50;3.20;;;;;;;;;;7389312;19;20006;-76
2023/01/22 10:02:51;;;;;;;7.28;3.00;;;;;;;;;;7386797;19;20013;-75
2023/01/22 10:05:26;;;;;;;5.22;3.03;;;;;;;;;;7386761;19;20007;-76
2023/01/22 10:07:59;;;;;;;5.93;3.03;;;;;;;;;;7385170;19;20002;-76
2023/01/22 10:10:26;;;;;;;6.45;3.25;;;;;;;;;;7389178;19;20492;-75
2023/01/22 10:13:00;;;;;;;4.70;2.85;;;;;;;;;;7386314;19;20014;-76
2023/01/22 10:15:26;;;;;;;6.13;3.20;;;;;;;;;;7386725;19;20002;-77
2023/01/22 10:17:54;;;;;;;5.18;3.22;;;;;;;;;;7388113;19;20062;-76
2023/01/22 10:20:20;;;;;;;5.82;3.10;;;;;;;;;;7387223;19;20393;-78
2023/01/22 10:22:47;;;;;;;8.35;3.40;;;;;;;;;;7387726;19;19998;-77
2023/01/22 10:25:14;;;;;;;7.03;3.35;;;;;;;;;;7387656;19;20013;-75
2023/01/22 10:27:40;;;;;;;8.02;3.33;;;;;;;;;;7389256;19;20334;-75
2023/01/22 10:30:21;;;;;;;4.72;2.90;;;;;;;;;;7386101;19;20027;-78
2023/01/22 10:33:01;;;;;;;5.28;2.90;;;;;;;;;;7387304;19;20078;-77
2023/01/22 10:35:29;;;;;;;4.97;2.95;;;;;;;;;;7385213;19;20037;-77
2023/01/22 10:37:55;;;;;;;4.80;2.67;;;;;;;;;;7386687;19;19999;-76
2023/01/22 10:40:33;;;;;;;5.28;3.03;;;;;;;;;;7386239;19;20002;-75
2023/01/22 10:42:59;;;;;;;5.68;2.65;;;;;;;;;;7379820;19;20022;-71
2023/01/22 10:45:25;;;;;;;6.07;3.05;;;;;;;;;;7385516;19;20023;-75
2023/01/22 10:47:50;;;;;;;6.93;3.70;;;;;;;;;;7390148;19;20002;-75
2023/01/22 10:50:16;;;;;;;5.18;3.08;;;;;;;;;;7386895;19;20006;-76
2023/01/22 10:52:53;;;;;;;4.45;2.78;;;;;;;;;;7386942;19;20118;-74
2023/01/22 10:55:40;;;;;;;5.75;3.10;;;;;;;;;;7387060;19;20010;-75
2023/01/22 10:58:14;;;;;;;5.05;2.88;;;;;;;;;;7387735;19;19998;-75
2023/01/22 11:00:40;;;;;;;7.07;3.10;;;;;;;;;;7387554;19;20003;-75
2023/01/22 11:03:17;;;;;;;6.80;2.88;;;;;;;;;;7385020;19;20006;-75
2023/01/22 11:05:45;;;;;;;4.72;3.00;;;;;;;;;;7386237;19;20014;-75
2023/01/22 11:08:15;;;;;;;6.20;3.30;;;;;;;;;;7387703;19;19995;-74
2023/01/22 11:10:55;;;;;;;7.07;3.10;;;;;;;;;;7387638;19;20054;-71
2023/01/22 11:13:49;;;;;;;5.07;2.90;;;;;;;;;;7385874;19;20100;-73
2023/01/22 11:16:20;;;;;;;5.80;3.03;;;;;;;;;;7389538;19;19991;-74
2023/01/22 11:18:50;;;;;;;7.10;3.80;;;;;;;;;;7388274;19;20416;-74
2023/01/22 11:21:21;;;;;;;5.00;3.10;;;;;;;;;;7387620;19;19998;-75
2023/01/22 11:23:51;;;;;;;5.70;3.40;;;;;;;;;;7389127;19;20027;-74
2023/01/22 11:26:31;;;;;;;10.43;3.40;;;;;;;;;;7387874;19;20009;-74
2023/01/22 11:29:25;;;;;;;6.30;2.97;;;;;;;;;;7391778;19;20338;-74
2023/01/22 11:31:59;;;;;;;9.73;3.50;;;;;;;;;;7386010;19;20042;-76
2023/01/22 11:34:52;;;;;;;6.03;3.13;;;;;;;;;;7386834;19;20575;-75
2023/01/22 11:37:24;;;;;;;8.23;3.15;;;;;;;;;;7316683;19;20108;-73
2023/01/22 11:40:02;;;;;;;4.43;2.70;;;;;;;;;;7389657;19;20403;-76
2023/01/22 11:42:58;;;;;;;4.82;2.80;;;;;;;;;;7383532;19;20110;-74
2023/01/22 11:45:38;;;;;;;4.78;2.15;;;;;;;;;;7384125;19;20017;-74
2023/01/22 11:48:19;;;;;;;3.28;2.30;;;;;;;;;;7383169;19;20097;-75
2023/01/22 11:50:54;;;;;;;3.10;1.90;;;;;;;;;;7384800;19;20003;-74
2023/01/22 11:53:59;;;;;;;4.57;2.63;;;;;;;;;;7271456;19;20263;-75
2023/01/22 11:56:47;;;;;;;3.13;1.88;;;;;;;;;;7391444;19;20470;-73
2023/01/22 11:59:54;;;;;;;4.15;2.45;;;;;;;;;;7392328;19;19999;-74
2023/01/22 12:02:57;;;;;;;4.25;2.40;;;;;;;;;;7390382;19;20305;-75
2023/01/22 12:06:01;;;;;;;4.30;2.08;;;;;;;;;;7396804;19;19990;-75
2023/01/22 12:08:32;;;;;;;3.58;1.70;;;;;;;;;;7393849;19;19994;-75
2023/01/22 12:11:06;;;;;;;5.25;1.95;;;;;;;;;;7394231;19;19987;-75
2023/01/22 12:14:09;;;;;;;4.88;2.22;;;;;;;;;;7391757;19;20366;-77
2023/01/22 12:17:04;;;;;;;5.38;2.60;;;;;;;;;;7395726;19;19995;-76
2023/01/22 12:19:47;;;;;;;4.55;1.90;;;;;;;;;;7394159;19;19990;-76
2023/01/22 12:22:49;;;;;;;6.18;2.38;;;;;;;;;;7392241;19;19994;-75
2023/01/22 12:25:52;;;;;;;4.03;2.30;;;;;;;;;;7394025;19;20003;-76
2023/01/22 12:28:43;;;;;;;3.95;2.40;;;;;;;;;;7393061;19;20002;-76
2023/01/22 12:31:30;;;;;;;5.57;2.92;;;;;;;;;;7394824;19;20002;-73
2023/01/22 12:34:00;;;;;;;7.55;3.50;;;;;;;;;;7398418;19;20500;-74
2023/01/22 12:36:27;;;;;;;7.07;3.30;;;;;;;;;;7399062;19;20433;-75
2023/01/22 12:39:06;;;;;;;4.72;2.90;;;;;;;;;;7397970;19;20056;-76
2023/01/22 12:41:43;;;;;;;5.07;2.72;;;;;;;;;;7393767;19;20054;-75
2023/01/22 12:44:33;;;;;;;6.22;2.95;;;;;;;;;;7395504;19;20365;-74
2023/01/22 12:47:18;;;;;;;5.57;3.13;;;;;;;;;;7393480;19;19995;-75
2023/01/22 12:49:49;;;;;;;6.57;3.35;;;;;;;;;;7389590;19;20303;-74
2023/01/22 12:52:31;;;;;;;5.60;2.80;;;;;;;;;;7391678;19;19999;-74
2023/01/22 12:54:58;;;;;;;6.95;3.13;;;;;;;;;;7394005;19;19999;-75
2023/01/22 12:57:34;;;;;;;5.95;2.97;;;;;;;;;;7393581;19;19999;-70
2023/01/22 13:00:21;;;;;;;5.50;3.10;;;;;;;;;;7395859;19;20476;-76
2023/01/22 13:02:46;;;;;;;5.70;2.95;;;;;;;;;;7390540;19;20026;-72
2023/01/22 13:05:30;;;;;;;6.07;3.00;;;;;;;;;;7384411;19;20122;-76
2023/01/22 13:08:22;;;;;;;7.20;2.92;;;;;;;;;;7388209;19;20013;-74
2023/01/22 13:11:13;;;;;;;4.65;2.72;;;;;;;;;;7390901;19;20002;-74
2023/01/22 13:13:47;;;;;;;5.82;3.03;;;;;;;;;;7390419;19;20003;-75
2023/01/22 13:16:32;;;;;;;5.53;2.75;;;;;;;;;;7386553;19;20461;-75
2023/01/22 13:18:57;;;;;;;5.40;2.90;;;;;;;;;;7389508;19;20016;-77
2023/01/22 13:21:28;;;;;;;6.22;3.20;;;;;;;;;;7389328;19;20176;-77
2023/01/22 13:24:11;;;;;;;6.22;3.20;;;;;;;;;;7389274;19;20457;-77
2023/01/22 13:26:37;;;;;;;6.85;3.03;;;;;;;;;;7389730;19;20364;-78
2023/01/22 13:29:20;;;;;;;6.95;3.30;;;;;;;;;;7395117;19;20064;-77
2023/01/22 13:31:58;;;;;;;5.80;3.20;;;;;;;;;;7396939;19;20493;-76
2023/01/22 13:34:24;;;;;;;6.18;3.08;;;;;;;;;;7404812;19;19998;-77
2023/01/22 13:36:51;;;;;;;5.28;3.08;;;;;;;;;;7410796;19;20030;-79
2023/01/22 13:39:28;;;;;;;5.80;3.10;;;;;;;;;;7403396;19;19991;-78
2023/01/22 13:41:56;;;;;;;5.65;3.28;;;;;;;;;;7400678;19;20003;-77
2023/01/22 13:44:32;;;;;;;6.10;3.07;;;;;;;;;;7396026;19;20074;-78
2023/01/22 13:46:58;;;;;;;5.25;3.22;;;;;;;;;;7392391;19;20441;-76
2023/01/22 13:49:26;;;;;;;4.95;2.92;;;;;;;;;;7381319;19;20464;-76
2023/01/22 13:51:51;;;;;;;5.60;3.00;;;;;;;;;;7387339;19;20042;-78
2023/01/22 13:54:26;;;;;;;5.53;2.85;;;;;;;;;;7389059;19;20066;-77
2023/01/22 13:56:51;;;;;;;5.88;3.05;;;;;;;;;;7390959;19;20007;-78
2023/01/22 13:59:23;;;;;;;8.43;3.45;;;;;;;;;;7387592;19;20019;-76
2023/01/22 14:01:49;;;;;;;6.65;3.33;;;;;;;;;;7388078;19;20322;-81
2023/01/22 14:04:30;;;;;;;7.97;3.30;;;;;;;;;;7384908;19;20006;-79
2023/01/22 14:06:56;;;;;;;;;;;;;;;;;;7391207;19;20070;-80
2023/01/22 14:09:25;;;;;;;4.85;2.80;;;;;;;;;;7388306;19;20270;-80
2023/01/22 14:11:51;;;;;;;5.22;2.72;;;;;;;;;;7391803;19;20011;-79
2023/01/22 14:14:19;;;;;;;5.30;3.15;;;;;;;;;;7389130;19;20040;-79
2023/01/22 14:16:45;;;;;;;5.88;3.10;;;;;;;;;;7390438;19;20364;-78
2023/01/22 14:19:10;;;;;;;5.38;3.00;;;;;;;;;;7388358;19;20330;-77
2023/01/22 14:21:36;;;;;;;5.78;3.28;;;;;;;;;;7389353;19;20009;-77
2023/01/22 14:24:02;;;;;;;6.20;3.60;;;;;;;;;;7389254;19;20527;-77
2023/01/22 14:26:28;;;;;;;5.57;3.30;;;;;;;;;;7388484;19;20062;-78
2023/01/22 14:28:54;;;;;;;6.45;3.47;;;;;;;;;;7388678;19;20025;-79
2023/01/22 14:31:19;;;;;;;5.30;2.85;;;;;;;;;;7387138;19;20457;-77
2023/01/22 14:33:44;;;;;;;5.97;3.50;;;;;;;;;;7390695;19;20003;-80
2023/01/22 14:36:09;;;;;;;6.45;3.75;;;;;;;;;;7386984;19;20002;-78
2023/01/22 14:38:35;;;;;;;6.45;3.50;;;;;;;;;;7394060;19;20634;-80
2023/01/22 14:41:07;;;;;;;6.35;3.55;;;;;;;;;;7391286;19;19998;-80
2023/01/22 14:43:34;;;;;;;6.47;3.40;;;;;;;;;;7392541;19;20445;-79
2023/01/22 14:45:59;;;;;;;6.35;3.50;;;;;;;;;;7390890;19;19998;-78
2023/01/22 14:48:25;;;;;;;7.60;3.75;;;;;;;;;;7389814;19;20117;-78
2023/01/22 14:50:50;;;;;;;6.68;3.38;;;;;;;;;;7387395;19;20526;-78
2023/01/22 14:53:17;;;;;;;7.38;3.50;;;;;;;;;;7388863;19;20031;-79
2023/01/22 14:55:42;;;;;;;7.18;3.70;;;;;;;;;;7390933;19;20033;-79
2023/01/22 14:58:11;;;;;;;6.63;3.50;;;;;;;;;;7389417;19;19998;-78
2023/01/22 15:00:38;;;;;;;6.40;3.40;;;;;;;;;;7388830;19;20332;-79